sensor_id;sensor_type;location;lat;lon;timestamp;P1;durP1;ratioP1;P2;durP2;ratioP2
69502;SDS011;56704;54.242;12.442;2023-01-01T00:01:04;10.73;;;4.47;;
69502;SDS011;56704;54.242;12.442;2023-01-01T00:03:33;12.55;;;4.38;;
69502;SDS011;56704;54.242;12.442;2023-01-01T00:06:03;9.35;;;4.70;;
69502;SDS011;56704;54.242;12.442;2023-01-01T00:08:30;6.93;;;3.50;;
69502;SDS011;56704;54.242;12.442;2023-01-01T00:10:59;8.90;;;4.13;;
69502;SDS011;56704;54.242;12.442;2023-01-01T00:13:26;10.40;;;4.53;;
69502;SDS011;56704;54.242;12.442;2023-01-01T00:15:52;6.88;;;3.17;;
69502;SDS011;56704;54.242;12.442;2023-01-01T00:18:19;8.88;;;3.45;;
69502;SDS011;56704;54.242;12.442;2023-01-01T00:20:47;11.57;;;4.33;;
69502;SDS011;56704;54.242;12.442;2023-01-01T00:23:14;9.82;;;3.83;;
69502;SDS011;56704;54.242;12.442;2023-01-01T00:25:40;10.82;;;3.88;;
69502;SDS011;56704;54.242;12.442;2023-01-01T00:28:08;11.77;;;3.88;;
69502;SDS011;56704;54.242;12.442;2023-01-01T00:30:37;9.20;;;3.67;;
69502;SDS011;56704;54.242;12.442;2023-01-01T00:33:04;11.17;;;4.73;;
69502;SDS011;56704;54.242;12.442;2023-01-01T00:35:32;10.30;;;4.13;;
69502;SDS011;56704;54.242;12.442;2023-01-01T00:38:02;8.40;;;3.35;;
69502;SDS011;56704;54.242;12.442;2023-01-01T00:40:28;7.18;;;3.28;;
69502;SDS011;56704;54.242;12.442;2023-01-01T00:42:55;8.98;;;3.50;;
69502;SDS011;56704;54.242;12.442;2023-01-01T00:45:22;8.93;;;3.97;;
69502;SDS011;56704;54.242;12.442;2023-01-01T00:47:49;11.55;;;5.45;;
69502;SDS011;56704;54.242;12.442;2023-01-01T00:50:16;9.50;;;2.95;;
69502;SDS011;56704;54.242;12.442;2023-01-01T00:52:43;10.55;;;3.67;;
69502;SDS011;56704;54.242;12.442;2023-01-01T00:55:11;6.80;;;2.80;;
69502;SDS011;56704;54.242;12.442;2023-01-01T00:57:38;6.60;;;2.50;;
69502;SDS011;56704;54.242;12.442;2023-01-01T01:00:05;7.30;;;3.83;;
69502;SDS011;56704;54.242;12.442;2023-01-01T01:02:32;7.40;;;2.78;;
69502;SDS011;56704;54.242;12.442;2023-01-01T01:04:59;10.50;;;4.10;;
69502;SDS011;56704;54.242;12.442;2023-01-01T01:07:27;8.50;;;4.10;;
69502;SDS011;56704;54.242;12.442;2023-01-01T01:09:59;9.53;;;4.30;;
69502;SDS011;56704;54.242;12.442;2023-01-01T01:12:27;7.55;;;2.42;;
69502;SDS011;56704;54.242;12.442;2023-01-01T01:14:53;9.65;;;3.78;;
69502;SDS011;56704;54.242;12.442;2023-01-01T01:17:20;8.32;;;3.60;;
69502;SDS011;56704;54.242;12.442;2023-01-01T01:19:46;10.88;;;3.90;;
69502;SDS011;56704;54.242;12.442;2023-01-01T01:22:13;7.97;;;3.37;;
69502;SDS011;56704;54.242;12.442;2023-01-01T01:24:39;12.77;;;5.57;;
69502;SDS011;56704;54.242;12.442;2023-01-01T01:27:06;10.15;;;4.93;;
69502;SDS011;56704;54.242;12.442;2023-01-01T01:29:34;11.02;;;4.25;;
69502;SDS011;56704;54.242;12.442;2023-01-01T01:32:00;11.43;;;3.17;;
69502;SDS011;56704;54.242;12.442;2023-01-01T01:34:27;8.00;;;2.90;;
69502;SDS011;56704;54.242;12.442;2023-01-01T01:36:54;8.88;;;4.03;;
69502;SDS011;56704;54.242;12.442;2023-01-01T01:39:22;10.15;;;3.63;;
69502;SDS011;56704;54.242;12.442;2023-01-01T01:41:49;11.38;;;4.22;;
69502;SDS011;56704;54.242;12.442;2023-01-01T01:47:15;10.27;;;3.93;;
69502;SDS011;56704;54.242;12.442;2023-01-01T01:49:45;10.45;;;3.30;;
69502;SDS011;56704;54.242;12.442;2023-01-01T01:52:12;8.40;;;2.47;;
69502;SDS011;56704;54.242;12.442;2023-01-01T01:54:39;9.90;;;3.92;;
69502;SDS011;56704;54.242;12.442;2023-01-01T01:57:07;8.25;;;2.30;;
69502;SDS011;56704;54.242;12.442;2023-01-01T01:59:40;9.83;;;3.10;;
69502;SDS011;56704;54.242;12.442;2023-01-01T02:02:11;9.05;;;2.03;;
69502;SDS011;56704;54.242;12.442;2023-01-01T02:04:41;10.50;;;2.35;;
69502;SDS011;56704;54.242;12.442;2023-01-01T02:07:08;9.43;;;3.10;;
69502;SDS011;56704;54.242;12.442;2023-01-01T02:09:36;8.50;;;3.00;;
69502;SDS011;56704;54.242;12.442;2023-01-01T02:12:02;8.53;;;3.17;;
69502;SDS011;56704;54.242;12.442;2023-01-01T02:14:29;8.60;;;3.25;;
69502;SDS011;56704;54.242;12.442;2023-01-01T02:16:58;8.60;;;2.97;;
69502;SDS011;56704;54.242;12.442;2023-01-01T02:19:36;9.77;;;2.95;;
69502;SDS011;56704;54.242;12.442;2023-01-01T02:22:13;13.75;;;3.92;;
69502;SDS011;56704;54.242;12.442;2023-01-01T02:24:50;7.20;;;2.60;;
69502;SDS011;56704;54.242;12.442;2023-01-01T02:27:26;6.05;;;2.08;;
69502;SDS011;56704;54.242;12.442;2023-01-01T02:30:04;7.90;;;2.72;;
69502;SDS011;56704;54.242;12.442;2023-01-01T02:32:33;5.18;;;1.70;;
69502;SDS011;56704;54.242;12.442;2023-01-01T02:35:03;8.18;;;2.50;;
69502;SDS011;56704;54.242;12.442;2023-01-01T02:37:47;7.23;;;1.97;;
69502;SDS011;56704;54.242;12.442;2023-01-01T02:40:17;8.23;;;2.42;;
69502;SDS011;56704;54.242;12.442;2023-01-01T02:42:46;10.40;;;2.80;;
69502;SDS011;56704;54.242;12.442;2023-01-01T02:45:15;8.07;;;2.55;;
69502;SDS011;56704;54.242;12.442;2023-01-01T02:47:41;10.52;;;2.63;;
69502;SDS011;56704;54.242;12.442;2023-01-01T02:50:09;6.67;;;2.17;;
69502;SDS011;56704;54.242;12.442;2023-01-01T02:52:48;13.07;;;3.60;;
69502;SDS011;56704;54.242;12.442;2023-01-01T02:55:24;6.22;;;2.40;;
69502;SDS011;56704;54.242;12.442;2023-01-01T02:57:59;12.52;;;3.58;;
69502;SDS011;56704;54.242;12.442;2023-01-01T03:00:53;6.47;;;2.22;;
69502;SDS011;56704;54.242;12.442;2023-01-01T03:03:25;8.10;;;2.10;;
69502;SDS011;56704;54.242;12.442;2023-01-01T03:05:57;11.73;;;4.13;;
69502;SDS011;56704;54.242;12.442;2023-01-01T03:08:48;9.10;;;2.40;;
69502;SDS011;56704;54.242;12.442;2023-01-01T03:11:20;9.77;;;2.40;;
69502;SDS011;56704;54.242;12.442;2023-01-01T03:13:50;9.00;;;2.95;;
69502;SDS011;56704;54.242;12.442;2023-01-01T03:16:24;8.27;;;2.40;;
69502;SDS011;56704;54.242;12.442;2023-01-01T03:18:57;11.85;;;3.38;;
69502;SDS011;56704;54.242;12.442;2023-01-01T03:21:38;9.02;;;2.45;;
69502;SDS011;56704;54.242;12.442;2023-01-01T03:24:08;7.43;;;2.05;;
69502;SDS011;56704;54.242;12.442;2023-01-01T03:26:38;9.50;;;2.65;;
69502;SDS011;56704;54.242;12.442;2023-01-01T03:29:06;14.23;;;3.57;;
69502;SDS011;56704;54.242;12.442;2023-01-01T03:31:37;7.78;;;1.42;;
69502;SDS011;56704;54.242;12.442;2023-01-01T03:34:09;7.55;;;2.55;;
69502;SDS011;56704;54.242;12.442;2023-01-01T03:36:39;13.32;;;3.63;;
69502;SDS011;56704;54.242;12.442;2023-01-01T03:39:09;7.15;;;2.47;;
69502;SDS011;56704;54.242;12.442;2023-01-01T03:41:39;9.90;;;2.63;;
69502;SDS011;56704;54.242;12.442;2023-01-01T03:44:10;8.95;;;2.72;;
69502;SDS011;56704;54.242;12.442;2023-01-01T03:46:41;10.07;;;1.85;;
69502;SDS011;56704;54.242;12.442;2023-01-01T03:49:09;10.02;;;2.33;;
69502;SDS011;56704;54.242;12.442;2023-01-01T03:51:41;9.88;;;2.97;;
69502;SDS011;56704;54.242;12.442;2023-01-01T03:54:45;9.43;;;3.03;;
69502;SDS011;56704;54.242;12.442;2023-01-01T03:57:19;8.32;;;2.70;;
69502;SDS011;56704;54.242;12.442;2023-01-01T03:59:51;6.15;;;1.80;;
69502;SDS011;56704;54.242;12.442;2023-01-01T04:02:26;8.80;;;2.42;;
69502;SDS011;56704;54.242;12.442;2023-01-01T04:04:56;11.38;;;3.20;;
69502;SDS011;56704;54.242;12.442;2023-01-01T04:07:26;10.27;;;2.90;;
69502;SDS011;56704;54.242;12.442;2023-01-01T04:09:55;9.82;;;3.08;;
69502;SDS011;56704;54.242;12.442;2023-01-01T04:12:25;7.00;;;2.03;;
69502;SDS011;56704;54.242;12.442;2023-01-01T04:14:53;6.80;;;2.50;;
69502;SDS011;56704;54.242;12.442;2023-01-01T04:17:20;7.93;;;3.22;;
69502;SDS011;56704;54.242;12.442;2023-01-01T04:19:48;5.83;;;2.10;;
69502;SDS011;56704;54.242;12.442;2023-01-01T04:22:15;9.18;;;3.67;;
69502;SDS011;56704;54.242;12.442;2023-01-01T04:24:42;8.48;;;2.50;;
69502;SDS011;56704;54.242;12.442;2023-01-01T04:27:08;9.65;;;3.50;;
69502;SDS011;56704;54.242;12.442;2023-01-01T04:29:35;10.40;;;3.13;;
69502;SDS011;56704;54.242;12.442;2023-01-01T04:32:05;14.13;;;2.30;;
69502;SDS011;56704;54.242;12.442;2023-01-01T04:34:32;9.93;;;3.30;;
69502;SDS011;56704;54.242;12.442;2023-01-01T04:37:00;8.43;;;2.45;;
69502;SDS011;56704;54.242;12.442;2023-01-01T04:39:27;10.02;;;3.88;;
69502;SDS011;56704;54.242;12.442;2023-01-01T04:41:53;8.73;;;2.78;;
69502;SDS011;56704;54.242;12.442;2023-01-01T04:44:20;10.77;;;3.47;;
69502;SDS011;56704;54.242;12.442;2023-01-01T04:46:46;9.77;;;3.67;;
69502;SDS011;56704;54.242;12.442;2023-01-01T04:49:13;10.93;;;4.05;;
69502;SDS011;56704;54.242;12.442;2023-01-01T04:54:09;7.35;;;3.13;;
69502;SDS011;56704;54.242;12.442;2023-01-01T04:56:36;10.57;;;3.13;;
69502;SDS011;56704;54.242;12.442;2023-01-01T04:59:02;8.32;;;2.50;;
69502;SDS011;56704;54.242;12.442;2023-01-01T05:01:29;9.10;;;2.72;;
69502;SDS011;56704;54.242;12.442;2023-01-01T05:03:59;8.60;;;3.72;;
69502;SDS011;56704;54.242;12.442;2023-01-01T05:12:45;11.93;;;4.55;;
69502;SDS011;56704;54.242;12.442;2023-01-01T05:15:11;9.75;;;3.92;;
69502;SDS011;56704;54.242;12.442;2023-01-01T05:17:38;11.45;;;4.00;;
69502;SDS011;56704;54.242;12.442;2023-01-01T05:20:05;14.43;;;4.63;;
69502;SDS011;56704;54.242;12.442;2023-01-01T05:22:32;8.60;;;3.37;;
69502;SDS011;56704;54.242;12.442;2023-01-01T05:24:59;8.95;;;4.07;;
69502;SDS011;56704;54.242;12.442;2023-01-01T05:27:26;11.93;;;5.25;;
69502;SDS011;56704;54.242;12.442;2023-01-01T05:29:53;13.30;;;4.72;;
69502;SDS011;56704;54.242;12.442;2023-01-01T05:32:20;10.20;;;4.40;;
69502;SDS011;56704;54.242;12.442;2023-01-01T05:34:47;11.77;;;4.73;;
69502;SDS011;56704;54.242;12.442;2023-01-01T05:37:13;13.90;;;5.20;;
69502;SDS011;56704;54.242;12.442;2023-01-01T05:39:40;13.55;;;5.15;;
69502;SDS011;56704;54.242;12.442;2023-01-01T05:42:06;12.45;;;4.47;;
69502;SDS011;56704;54.242;12.442;2023-01-01T05:44:34;13.85;;;6.18;;
69502;SDS011;56704;54.242;12.442;2023-01-01T05:47:01;8.73;;;2.73;;
69502;SDS011;56704;54.242;12.442;2023-01-01T05:49:27;12.40;;;3.95;;
69502;SDS011;56704;54.242;12.442;2023-01-01T05:51:54;11.18;;;2.83;;
69502;SDS011;56704;54.242;12.442;2023-01-01T05:54:22;14.15;;;5.85;;
69502;SDS011;56704;54.242;12.442;2023-01-01T05:56:49;7.28;;;3.15;;
69502;SDS011;56704;54.242;12.442;2023-01-01T05:59:15;9.23;;;4.13;;
69502;SDS011;56704;54.242;12.442;2023-01-01T06:01:43;10.00;;;3.47;;
69502;SDS011;56704;54.242;12.442;2023-01-01T06:04:10;11.30;;;4.68;;
69502;SDS011;56704;54.242;12.442;2023-01-01T06:06:39;11.82;;;4.88;;
69502;SDS011;56704;54.242;12.442;2023-01-01T06:09:06;11.45;;;4.68;;
69502;SDS011;56704;54.242;12.442;2023-01-01T06:11:32;10.63;;;3.37;;
69502;SDS011;56704;54.242;12.442;2023-01-01T06:13:59;10.13;;;4.25;;
69502;SDS011;56704;54.242;12.442;2023-01-01T06:16:29;8.93;;;3.38;;
69502;SDS011;56704;54.242;12.442;2023-01-01T06:18:58;9.52;;;3.88;;
69502;SDS011;56704;54.242;12.442;2023-01-01T06:21:25;9.60;;;4.78;;
69502;SDS011;56704;54.242;12.442;2023-01-01T06:23:53;7.97;;;3.17;;
69502;SDS011;56704;54.242;12.442;2023-01-01T06:26:21;10.85;;;3.80;;
69502;SDS011;56704;54.242;12.442;2023-01-01T06:28:50;9.48;;;3.55;;
69502;SDS011;56704;54.242;12.442;2023-01-01T06:31:18;10.48;;;3.35;;
69502;SDS011;56704;54.242;12.442;2023-01-01T06:33:45;10.00;;;3.72;;
69502;SDS011;56704;54.242;12.442;2023-01-01T06:36:15;5.30;;;2.03;;
69502;SDS011;56704;54.242;12.442;2023-01-01T06:38:43;11.32;;;3.42;;
69502;SDS011;56704;54.242;12.442;2023-01-01T06:41:12;7.45;;;3.20;;
69502;SDS011;56704;54.242;12.442;2023-01-01T06:43:39;7.97;;;3.47;;
69502;SDS011;56704;54.242;12.442;2023-01-01T06:46:07;8.88;;;3.47;;
69502;SDS011;56704;54.242;12.442;2023-01-01T06:48:39;7.97;;;3.60;;
69502;SDS011;56704;54.242;12.442;2023-01-01T06:53:49;9.15;;;3.72;;
69502;SDS011;56704;54.242;12.442;2023-01-01T06:56:16;7.70;;;3.13;;
69502;SDS011;56704;54.242;12.442;2023-01-01T06:58:43;8.70;;;2.95;;
69502;SDS011;56704;54.242;12.442;2023-01-01T07:01:11;8.50;;;2.77;;
69502;SDS011;56704;54.242;12.442;2023-01-01T07:03:52;9.48;;;3.53;;
69502;SDS011;56704;54.242;12.442;2023-01-01T07:06:20;10.20;;;3.28;;
69502;SDS011;56704;54.242;12.442;2023-01-01T07:08:48;9.25;;;3.45;;
69502;SDS011;56704;54.242;12.442;2023-01-01T07:11:15;9.30;;;3.08;;
69502;SDS011;56704;54.242;12.442;2023-01-01T07:13:42;6.63;;;2.23;;
69502;SDS011;56704;54.242;12.442;2023-01-01T07:16:09;8.23;;;2.70;;
69502;SDS011;56704;54.242;12.442;2023-01-01T07:18:35;9.13;;;3.75;;
69502;SDS011;56704;54.242;12.442;2023-01-01T07:21:03;7.30;;;2.45;;
69502;SDS011;56704;54.242;12.442;2023-01-01T07:23:31;9.93;;;3.30;;
69502;SDS011;56704;54.242;12.442;2023-01-01T07:26:01;8.87;;;3.30;;
69502;SDS011;56704;54.242;12.442;2023-01-01T07:28:27;5.22;;;2.00;;
69502;SDS011;56704;54.242;12.442;2023-01-01T07:30:54;9.93;;;2.47;;
69502;SDS011;56704;54.242;12.442;2023-01-01T07:33:22;7.03;;;2.40;;
69502;SDS011;56704;54.242;12.442;2023-01-01T07:35:49;8.52;;;3.10;;
69502;SDS011;56704;54.242;12.442;2023-01-01T07:38:16;9.73;;;3.23;;
69502;SDS011;56704;54.242;12.442;2023-01-01T07:40:42;11.55;;;3.58;;
69502;SDS011;56704;54.242;12.442;2023-01-01T07:43:10;8.43;;;2.05;;
69502;SDS011;56704;54.242;12.442;2023-01-01T07:45:38;6.43;;;2.35;;
69502;SDS011;56704;54.242;12.442;2023-01-01T07:48:06;6.38;;;2.85;;
69502;SDS011;56704;54.242;12.442;2023-01-01T07:50:34;6.67;;;2.07;;
69502;SDS011;56704;54.242;12.442;2023-01-01T07:53:02;6.97;;;2.17;;
69502;SDS011;56704;54.242;12.442;2023-01-01T07:55:28;5.63;;;2.28;;
69502;SDS011;56704;54.242;12.442;2023-01-01T07:57:55;6.53;;;2.25;;
69502;SDS011;56704;54.242;12.442;2023-01-01T08:00:23;6.18;;;2.13;;
69502;SDS011;56704;54.242;12.442;2023-01-01T08:02:50;5.53;;;1.70;;
69502;SDS011;56704;54.242;12.442;2023-01-01T08:05:18;5.00;;;2.03;;
69502;SDS011;56704;54.242;12.442;2023-01-01T08:07:45;6.00;;;1.30;;
69502;SDS011;56704;54.242;12.442;2023-01-01T08:10:12;8.70;;;3.00;;
69502;SDS011;56704;54.242;12.442;2023-01-01T08:12:39;5.05;;;1.33;;
69502;SDS011;56704;54.242;12.442;2023-01-01T08:15:07;5.27;;;1.87;;
69502;SDS011;56704;54.242;12.442;2023-01-01T08:17:36;4.25;;;1.50;;
69502;SDS011;56704;54.242;12.442;2023-01-01T08:20:03;5.82;;;1.40;;
69502;SDS011;56704;54.242;12.442;2023-01-01T08:22:31;7.95;;;2.85;;
69502;SDS011;56704;54.242;12.442;2023-01-01T08:24:57;6.75;;;2.38;;
69502;SDS011;56704;54.242;12.442;2023-01-01T08:27:24;8.53;;;2.83;;
69502;SDS011;56704;54.242;12.442;2023-01-01T08:29:50;6.72;;;2.67;;
69502;SDS011;56704;54.242;12.442;2023-01-01T08:32:17;7.65;;;2.30;;
69502;SDS011;56704;54.242;12.442;2023-01-01T08:34:45;8.27;;;2.50;;
69502;SDS011;56704;54.242;12.442;2023-01-01T08:37:12;10.18;;;3.70;;
69502;SDS011;56704;54.242;12.442;2023-01-01T08:39:39;5.97;;;1.97;;
69502;SDS011;56704;54.242;12.442;2023-01-01T08:42:06;6.63;;;2.20;;
69502;SDS011;56704;54.242;12.442;2023-01-01T08:44:33;9.35;;;2.33;;
69502;SDS011;56704;54.242;12.442;2023-01-01T08:46:59;14.05;;;2.85;;
69502;SDS011;56704;54.242;12.442;2023-01-01T08:49:26;8.57;;;2.65;;
69502;SDS011;56704;54.242;12.442;2023-01-01T08:51:54;7.53;;;1.40;;
69502;SDS011;56704;54.242;12.442;2023-01-01T08:54:20;6.88;;;2.22;;
69502;SDS011;56704;54.242;12.442;2023-01-01T08:56:47;8.05;;;1.88;;
69502;SDS011;56704;54.242;12.442;2023-01-01T08:59:14;7.43;;;2.10;;
69502;SDS011;56704;54.242;12.442;2023-01-01T09:01:40;6.63;;;1.85;;
69502;SDS011;56704;54.242;12.442;2023-01-01T09:04:07;9.00;;;2.17;;
69502;SDS011;56704;54.242;12.442;2023-01-01T09:06:36;6.78;;;1.77;;
69502;SDS011;56704;54.242;12.442;2023-01-01T09:09:04;5.75;;;1.67;;
69502;SDS011;56704;54.242;12.442;2023-01-01T09:11:31;10.77;;;2.60;;
69502;SDS011;56704;54.242;12.442;2023-01-01T09:13:57;6.50;;;1.80;;
69502;SDS011;56704;54.242;12.442;2023-01-01T09:16:24;7.10;;;2.17;;
69502;SDS011;56704;54.242;12.442;2023-01-01T09:18:51;5.85;;;1.73;;
69502;SDS011;56704;54.242;12.442;2023-01-01T09:21:19;5.35;;;1.50;;
69502;SDS011;56704;54.242;12.442;2023-01-01T09:23:45;6.85;;;2.10;;
69502;SDS011;56704;54.242;12.442;2023-01-01T09:26:13;6.72;;;1.70;;
69502;SDS011;56704;54.242;12.442;2023-01-01T09:28:40;7.17;;;2.60;;
69502;SDS011;56704;54.242;12.442;2023-01-01T09:31:07;6.53;;;1.75;;
69502;SDS011;56704;54.242;12.442;2023-01-01T09:33:33;6.25;;;2.33;;
69502;SDS011;56704;54.242;12.442;2023-01-01T09:36:13;6.13;;;1.98;;
69502;SDS011;56704;54.242;12.442;2023-01-01T09:38:40;6.30;;;1.70;;
69502;SDS011;56704;54.242;12.442;2023-01-01T09:41:09;5.93;;;1.97;;
69502;SDS011;56704;54.242;12.442;2023-01-01T09:43:44;6.63;;;2.33;;
69502;SDS011;56704;54.242;12.442;2023-01-01T09:46:22;9.02;;;2.08;;
69502;SDS011;56704;54.242;12.442;2023-01-01T09:48:50;6.25;;;1.95;;
69502;SDS011;56704;54.242;12.442;2023-01-01T09:51:20;6.55;;;1.27;;
69502;SDS011;56704;54.242;12.442;2023-01-01T09:53:49;8.03;;;2.33;;
69502;SDS011;56704;54.242;12.442;2023-01-01T09:56:22;5.32;;;1.60;;
69502;SDS011;56704;54.242;12.442;2023-01-01T09:58:51;6.38;;;1.67;;
69502;SDS011;56704;54.242;12.442;2023-01-01T10:01:23;4.40;;;1.50;;
69502;SDS011;56704;54.242;12.442;2023-01-01T10:04:01;4.40;;;1.42;;
69502;SDS011;56704;54.242;12.442;2023-01-01T10:06:43;5.43;;;2.20;;
69502;SDS011;56704;54.242;12.442;2023-01-01T10:09:17;7.43;;;1.80;;
69502;SDS011;56704;54.242;12.442;2023-01-01T10:11:53;6.50;;;1.70;;
69502;SDS011;56704;54.242;12.442;2023-01-01T10:14:25;5.45;;;1.70;;
69502;SDS011;56704;54.242;12.442;2023-01-01T10:16:56;6.22;;;1.77;;
69502;SDS011;56704;54.242;12.442;2023-01-01T10:19:28;7.37;;;1.57;;
69502;SDS011;56704;54.242;12.442;2023-01-01T10:22:01;4.65;;;1.27;;
69502;SDS011;56704;54.242;12.442;2023-01-01T10:24:37;5.53;;;1.45;;
69502;SDS011;56704;54.242;12.442;2023-01-01T10:27:11;4.10;;;1.02;;
69502;SDS011;56704;54.242;12.442;2023-01-01T10:29:49;6.43;;;1.38;;
69502;SDS011;56704;54.242;12.442;2023-01-01T10:32:18;4.17;;;0.90;;
69502;SDS011;56704;54.242;12.442;2023-01-01T10:34:46;6.70;;;1.23;;
69502;SDS011;56704;54.242;12.442;2023-01-01T10:37:14;6.45;;;1.30;;
69502;SDS011;56704;54.242;12.442;2023-01-01T10:39:41;5.50;;;1.05;;
69502;SDS011;56704;54.242;12.442;2023-01-01T10:42:12;6.45;;;1.48;;
69502;SDS011;56704;54.242;12.442;2023-01-01T10:44:40;5.13;;;0.90;;
69502;SDS011;56704;54.242;12.442;2023-01-01T10:47:21;4.28;;;0.55;;
69502;SDS011;56704;54.242;12.442;2023-01-01T10:49:54;4.25;;;0.90;;
69502;SDS011;56704;54.242;12.442;2023-01-01T10:52:27;3.83;;;0.98;;
69502;SDS011;56704;54.242;12.442;2023-01-01T10:54:56;4.65;;;0.80;;
69502;SDS011;56704;54.242;12.442;2023-01-01T10:57:33;1.73;;;0.30;;
69502;SDS011;56704;54.242;12.442;2023-01-01T11:00:18;2.70;;;0.52;;
69502;SDS011;56704;54.242;12.442;2023-01-01T11:02:50;6.70;;;1.10;;
69502;SDS011;56704;54.242;12.442;2023-01-01T11:05:36;4.72;;;0.68;;
69502;SDS011;56704;54.242;12.442;2023-01-01T11:08:13;4.13;;;0.70;;
69502;SDS011;56704;54.242;12.442;2023-01-01T11:10:48;6.23;;;0.83;;
69502;SDS011;56704;54.242;12.442;2023-01-01T11:13:18;3.58;;;0.40;;
69502;SDS011;56704;54.242;12.442;2023-01-01T11:15:45;2.22;;;0.50;;
69502;SDS011;56704;54.242;12.442;2023-01-01T11:18:13;3.05;;;0.70;;
69502;SDS011;56704;54.242;12.442;2023-01-01T11:20:41;1.50;;;0.30;;
69502;SDS011;56704;54.242;12.442;2023-01-01T11:23:18;4.07;;;0.90;;
69502;SDS011;56704;54.242;12.442;2023-01-01T11:25:59;3.72;;;0.60;;
69502;SDS011;56704;54.242;12.442;2023-01-01T11:28:30;2.97;;;0.60;;
69502;SDS011;56704;54.242;12.442;2023-01-01T11:31:00;3.45;;;0.40;;
69502;SDS011;56704;54.242;12.442;2023-01-01T11:33:31;3.10;;;0.45;;
69502;SDS011;56704;54.242;12.442;2023-01-01T11:35:59;3.23;;;0.50;;
69502;SDS011;56704;54.242;12.442;2023-01-01T11:38:26;4.93;;;0.60;;
69502;SDS011;56704;54.242;12.442;2023-01-01T11:40:53;5.32;;;0.80;;
69502;SDS011;56704;54.242;12.442;2023-01-01T11:43:22;3.47;;;0.55;;
69502;SDS011;56704;54.242;12.442;2023-01-01T11:45:52;3.90;;;0.60;;
69502;SDS011;56704;54.242;12.442;2023-01-01T11:48:22;1.80;;;0.30;;
69502;SDS011;56704;54.242;12.442;2023-01-01T11:50:52;4.63;;;0.70;;
69502;SDS011;56704;54.242;12.442;2023-01-01T11:53:26;3.60;;;0.57;;
69502;SDS011;56704;54.242;12.442;2023-01-01T11:55:57;4.55;;;0.60;;
69502;SDS011;56704;54.242;12.442;2023-01-01T11:58:29;3.28;;;0.30;;
69502;SDS011;56704;54.242;12.442;2023-01-01T12:01:05;3.40;;;0.40;;
69502;SDS011;56704;54.242;12.442;2023-01-01T12:03:37;3.08;;;0.50;;
69502;SDS011;56704;54.242;12.442;2023-01-01T12:06:08;4.90;;;0.45;;
69502;SDS011;56704;54.242;12.442;2023-01-01T12:08:37;4.30;;;0.68;;
69502;SDS011;56704;54.242;12.442;2023-01-01T12:11:09;3.90;;;0.77;;
69502;SDS011;56704;54.242;12.442;2023-01-01T12:13:43;2.10;;;0.30;;
69502;SDS011;56704;54.242;12.442;2023-01-01T12:16:17;5.28;;;1.13;;
69502;SDS011;56704;54.242;12.442;2023-01-01T12:18:47;4.15;;;0.38;;
69502;SDS011;56704;54.242;12.442;2023-01-01T12:21:25;7.28;;;0.60;;
69502;SDS011;56704;54.242;12.442;2023-01-01T12:23:53;3.03;;;0.60;;
69502;SDS011;56704;54.242;12.442;2023-01-01T12:26:20;3.20;;;0.60;;
69502;SDS011;56704;54.242;12.442;2023-01-01T12:29:03;3.40;;;0.40;;
69502;SDS011;56704;54.242;12.442;2023-01-01T12:31:46;2.42;;;0.40;;
69502;SDS011;56704;54.242;12.442;2023-01-01T12:34:22;4.60;;;0.40;;
69502;SDS011;56704;54.242;12.442;2023-01-01T12:36:55;6.32;;;0.75;;
69502;SDS011;56704;54.242;12.442;2023-01-01T12:42:49;3.63;;;0.45;;
69502;SDS011;56704;54.242;12.442;2023-01-01T12:45:29;4.18;;;0.60;;
69502;SDS011;56704;54.242;12.442;2023-01-01T12:51:21;3.45;;;0.52;;
69502;SDS011;56704;54.242;12.442;2023-01-01T12:53:58;3.43;;;0.40;;
69502;SDS011;56704;54.242;12.442;2023-01-01T12:56:35;3.63;;;0.60;;
69502;SDS011;56704;54.242;12.442;2023-01-01T12:59:09;3.55;;;0.43;;
69502;SDS011;56704;54.242;12.442;2023-01-01T13:01:39;3.15;;;0.60;;
69502;SDS011;56704;54.242;12.442;2023-01-01T13:04:08;2.33;;;0.70;;
69502;SDS011;56704;54.242;12.442;2023-01-01T13:06:39;4.23;;;0.50;;
69502;SDS011;56704;54.242;12.442;2023-01-01T13:09:10;2.88;;;0.43;;
69502;SDS011;56704;54.242;12.442;2023-01-01T13:11:40;2.50;;;0.20;;
69502;SDS011;56704;54.242;12.442;2023-01-01T13:14:08;3.40;;;0.70;;
69502;SDS011;56704;54.242;12.442;2023-01-01T13:16:36;5.65;;;0.63;;
69502;SDS011;56704;54.242;12.442;2023-01-01T13:19:05;3.13;;;0.40;;
69502;SDS011;56704;54.242;12.442;2023-01-01T13:21:32;2.53;;;0.30;;
69502;SDS011;56704;54.242;12.442;2023-01-01T13:24:04;3.05;;;0.38;;
69502;SDS011;56704;54.242;12.442;2023-01-01T13:26:44;3.92;;;0.55;;
69502;SDS011;56704;54.242;12.442;2023-01-01T13:29:32;2.28;;;0.45;;
69502;SDS011;56704;54.242;12.442;2023-01-01T13:32:07;2.93;;;0.60;;
69502;SDS011;56704;54.242;12.442;2023-01-01T13:34:36;3.92;;;0.60;;
69502;SDS011;56704;54.242;12.442;2023-01-01T13:39:57;2.83;;;0.32;;
69502;SDS011;56704;54.242;12.442;2023-01-01T13:42:44;4.75;;;0.68;;
69502;SDS011;56704;54.242;12.442;2023-01-01T13:45:17;3.53;;;0.40;;
69502;SDS011;56704;54.242;12.442;2023-01-01T13:47:53;2.20;;;0.40;;
69502;SDS011;56704;54.242;12.442;2023-01-01T13:50:32;3.50;;;0.40;;
69502;SDS011;56704;54.242;12.442;2023-01-01T13:53:11;3.83;;;0.55;;
69502;SDS011;56704;54.242;12.442;2023-01-01T13:58:50;3.63;;;0.40;;
69502;SDS011;56704;54.242;12.442;2023-01-01T14:01:40;3.20;;;0.47;;
69502;SDS011;56704;54.242;12.442;2023-01-01T14:04:13;2.97;;;0.30;;
69502;SDS011;56704;54.242;12.442;2023-01-01T14:06:52;4.72;;;0.73;;
69502;SDS011;56704;54.242;12.442;2023-01-01T14:09:20;1.75;;;0.30;;
69502;SDS011;56704;54.242;12.442;2023-01-01T14:11:48;4.77;;;0.93;;
69502;SDS011;56704;54.242;12.442;2023-01-01T14:14:17;4.72;;;0.57;;
69502;SDS011;56704;54.242;12.442;2023-01-01T14:16:49;5.07;;;0.50;;
69502;SDS011;56704;54.242;12.442;2023-01-01T14:19:16;5.78;;;0.40;;
69502;SDS011;56704;54.242;12.442;2023-01-01T14:21:43;3.60;;;0.30;;
69502;SDS011;56704;54.242;12.442;2023-01-01T14:24:10;4.50;;;0.80;;
69502;SDS011;56704;54.242;12.442;2023-01-01T14:26:43;6.00;;;0.80;;
69502;SDS011;56704;54.242;12.442;2023-01-01T14:29:14;4.78;;;0.30;;
69502;SDS011;56704;54.242;12.442;2023-01-01T14:31:45;1.92;;;0.30;;
69502;SDS011;56704;54.242;12.442;2023-01-01T14:34:13;5.22;;;0.93;;
69502;SDS011;56704;54.242;12.442;2023-01-01T14:36:47;2.27;;;0.40;;
69502;SDS011;56704;54.242;12.442;2023-01-01T14:39:22;3.67;;;0.50;;
69502;SDS011;56704;54.242;12.442;2023-01-01T14:41:50;4.75;;;0.60;;
69502;SDS011;56704;54.242;12.442;2023-01-01T14:44:20;4.28;;;0.45;;
69502;SDS011;56704;54.242;12.442;2023-01-01T14:46:51;6.15;;;0.60;;
69502;SDS011;56704;54.242;12.442;2023-01-01T14:49:19;6.17;;;0.20;;
69502;SDS011;56704;54.242;12.442;2023-01-01T14:51:49;5.03;;;0.45;;
69502;SDS011;56704;54.242;12.442;2023-01-01T14:54:20;3.63;;;0.28;;
69502;SDS011;56704;54.242;12.442;2023-01-01T14:56:50;3.33;;;0.38;;
69502;SDS011;56704;54.242;12.442;2023-01-01T14:59:20;4.55;;;0.40;;
69502;SDS011;56704;54.242;12.442;2023-01-01T15:02:00;2.00;;;0.20;;
69502;SDS011;56704;54.242;12.442;2023-01-01T15:04:30;3.20;;;0.43;;
69502;SDS011;56704;54.242;12.442;2023-01-01T15:06:57;3.08;;;0.50;;
69502;SDS011;56704;54.242;12.442;2023-01-01T15:09:25;5.63;;;0.50;;
69502;SDS011;56704;54.242;12.442;2023-01-01T15:11:53;7.75;;;1.13;;
69502;SDS011;56704;54.242;12.442;2023-01-01T15:14:29;8.37;;;0.73;;